Time;durP1;ratioP1;P1;durP2;ratioP2;P2;SDS_P1;SDS_P2;PMS_P1;PMS_P2;Temp;Humidity;BMP_temperature;BMP_pressure;BME280_temperature;BME280_humidity;BME280_pressure;Samples;Min_cycle;Max_cycle;Signal;HPM_P1;HPM_P2
2023/05/02 00:01:32;;;;;;;18.80;12.68;;;10.10;87.10;;;;;;5007970;28;20033;-74
2023/05/02 00:03:58;;;;;;;22.80;13.27;;;10.10;87.70;;;;;;5009956;28;20454;-73
2023/05/02 00:06:23;;;;;;;23.10;13.75;;;10.10;87.70;;;;;;4999928;28;20022;-74
2023/05/02 00:08:49;;;;;;;24.13;13.90;;;10.10;88.00;;;;;;5003599;28;20053;-74
2023/05/02 00:11:14;;;;;;;20.23;13.68;;;10.10;88.10;;;;;;5005770;28;20029;-74
2023/05/02 00:13:40;;;;;;;23.90;13.85;;;10.10;88.00;;;;;;5007018;28;20048;-75
2023/05/02 00:16:06;;;;;;;23.50;14.23;;;10.10;88.10;;;;;;5006673;28;20386;-74
2023/05/02 00:18:31;;;;;;;23.73;13.80;;;10.10;88.20;;;;;;5006223;28;20074;-73
2023/05/02 00:20:57;;;;;;;22.63;14.57;;;10.10;88.20;;;;;;5008497;28;20536;-71
2023/05/02 00:23:22;;;;;;;24.48;14.73;;;10.10;88.40;;;;;;5005369;28;20380;-72
2023/05/02 00:25:49;;;;;;;28.00;15.90;;;10.10;88.50;;;;;;5003149;28;20107;-72
2023/05/02 00:28:14;;;;;;;25.80;14.95;;;10.10;89.00;;;;;;5006318;28;20030;-72
2023/05/02 00:30:44;;;;;;;23.92;15.43;;;10.10;89.00;;;;;;5005076;28;20133;-73
2023/05/02 00:33:11;;;;;;;27.02;15.00;;;10.10;89.50;;;;;;5009068;28;20457;-74
2023/05/02 00:35:37;;;;;;;29.08;16.15;;;10.10;89.20;;;;;;5000306;28;20072;-72
2023/05/02 00:38:02;;;;;;;30.95;16.25;;;10.10;89.40;;;;;;5001193;28;20065;-72
2023/05/02 00:40:28;;;;;;;26.83;16.05;;;10.20;89.70;;;;;;5000584;28;20045;-73
2023/05/02 00:42:53;;;;;;;29.17;17.50;;;10.20;89.30;;;;;;5002168;28;20102;-73
2023/05/02 00:45:18;;;;;;;30.27;17.98;;;10.10;89.50;;;;;;5004231;28;20037;-74
2023/05/02 00:47:44;;;;;;;30.30;18.98;;;10.20;89.80;;;;;;5008340;28;20500;-73
2023/05/02 00:50:10;;;;;;;30.85;18.17;;;10.20;89.90;;;;;;5006681;28;20033;-73
2023/05/02 00:52:36;;;;;;;33.38;20.35;;;10.30;90.00;;;;;;5005760;28;20053;-73
2023/05/02 00:55:02;;;;;;;31.52;19.10;;;10.40;90.10;;;;;;5006331;28;20037;-73
2023/05/02 00:57:28;;;;;;;30.45;18.95;;;10.40;90.00;;;;;;5006198;28;20105;-73
2023/05/02 00:59:54;;;;;;;33.85;20.65;;;10.40;90.10;;;;;;5000195;28;20355;-73
2023/05/02 01:02:51;;;;;;;33.08;19.13;;;10.40;90.30;;;;;;5006108;28;20041;-74
2023/05/02 01:05:24;;;;;;;31.83;19.77;;;10.40;90.10;;;;;;5004782;28;20482;-75
2023/05/02 01:07:49;;;;;;;26.70;17.95;;;10.40;90.20;;;;;;5008392;28;20026;-74
2023/05/02 01:10:26;;;;;;;34.20;19.65;;;10.40;90.40;;;;;;5011118;28;20490;-74
2023/05/02 01:13:06;;;;;;;35.30;21.30;;;10.40;90.70;;;;;;5004748;28;20029;-74
2023/05/02 01:15:33;;;;;;;34.33;20.30;;;10.40;90.80;;;;;;5000053;28;20095;-74
2023/05/02 01:18:00;;;;;;;31.63;19.73;;;10.40;90.90;;;;;;5001425;28;20040;-74
2023/05/02 01:20:28;;;;;;;36.17;20.25;;;10.40;90.90;;;;;;5006555;28;20030;-74
2023/05/02 01:22:59;;;;;;;30.55;20.63;;;10.40;91.00;;;;;;5007164;28;20132;-73
2023/05/02 01:25:32;;;;;;;31.10;20.10;;;10.50;91.20;;;;;;5000353;28;20044;-74
2023/05/02 01:28:35;;;;;;;30.60;20.48;;;10.50;91.40;;;;;;4999617;28;20042;-74
2023/05/02 01:31:03;;;;;;;28.40;18.45;;;10.50;91.30;;;;;;5008087;28;20042;-74
2023/05/02 01:33:30;;;;;;;33.33;20.63;;;10.50;91.40;;;;;;5005751;28;20423;-75
2023/05/02 01:35:57;;;;;;;32.30;20.20;;;10.50;91.60;;;;;;5001088;28;20083;-74
2023/05/02 01:38:24;;;;;;;30.20;20.50;;;10.50;91.50;;;;;;5005421;28;20049;-74
2023/05/02 01:40:51;;;;;;;29.52;19.15;;;10.50;91.60;;;;;;5001739;28;20030;-74
2023/05/02 01:43:19;;;;;;;27.88;18.77;;;10.50;91.70;;;;;;5010128;28;20448;-74
2023/05/02 01:45:48;;;;;;;31.67;19.95;;;10.50;91.70;;;;;;5012087;28;20029;-73
2023/05/02 01:48:16;;;;;;;27.98;18.10;;;10.60;91.80;;;;;;5004346;28;20018;-74
2023/05/02 01:50:44;;;;;;;30.98;19.40;;;10.50;91.70;;;;;;5005607;28;20125;-74
2023/05/02 01:53:12;;;;;;;25.95;16.73;;;10.60;91.70;;;;;;5002017;28;20097;-74
2023/05/02 01:55:44;;;;;;;25.73;17.63;;;10.50;91.60;;;;;;4999666;28;20104;-74
2023/05/02 01:58:12;;;;;;;28.17;19.38;;;10.50;91.90;;;;;;4999991;28;20033;-74
2023/05/02 02:00:39;;;;;;;31.73;18.95;;;10.50;92.10;;;;;;5006157;28;20117;-73
2023/05/02 02:03:06;;;;;;;29.15;19.17;;;10.50;92.20;;;;;;5009187;28;20029;-74
2023/05/02 02:05:33;;;;;;;28.35;18.23;;;10.50;92.50;;;;;;5000588;28;20161;-74
2023/05/02 02:07:59;;;;;;;30.10;20.67;;;10.50;92.80;;;;;;5003928;28;20390;-74
2023/05/02 02:10:29;;;;;;;31.02;21.10;;;10.50;93.10;;;;;;5005200;28;20033;-74
2023/05/02 02:13:03;;;;;;;40.67;22.98;;;10.40;93.50;;;;;;5003355;28;20044;-74
2023/05/02 02:15:33;;;;;;;37.05;21.83;;;10.40;94.00;;;;;;4997079;28;20521;-75
2023/05/02 02:17:59;;;;;;;36.83;20.50;;;10.30;94.60;;;;;;5010710;28;20022;-74
2023/05/02 02:20:30;;;;;;;33.38;21.33;;;10.20;95.10;;;;;;5000639;28;20139;-75
2023/05/02 02:22:57;;;;;;;37.15;21.63;;;10.10;95.70;;;;;;5004951;28;20072;-73
2023/05/02 02:25:24;;;;;;;31.80;20.63;;;10.20;96.00;;;;;;4997790;28;20074;-73
2023/05/02 02:27:50;;;;;;;33.97;19.23;;;10.10;96.20;;;;;;5001096;28;20084;-74
2023/05/02 02:30:16;;;;;;;28.92;17.02;;;10.00;96.50;;;;;;4998418;28;20026;-73
2023/05/02 02:32:41;;;;;;;29.90;15.68;;;10.00;96.50;;;;;;5000932;28;20072;-74
2023/05/02 02:35:07;;;;;;;28.10;15.98;;;10.00;96.60;;;;;;5004604;28;20103;-74
2023/05/02 02:37:57;;;;;;;26.15;14.38;;;9.90;96.50;;;;;;5001732;28;20025;-74
2023/05/02 02:40:40;;;;;;;26.42;14.55;;;10.00;96.60;;;;;;5001287;28;20037;-73
2023/05/02 02:43:21;;;;;;;23.85;13.48;;;10.00;96.60;;;;;;4998924;28;20152;-74
2023/05/02 02:46:08;;;;;;;23.08;12.65;;;10.00;96.60;;;;;;5102490;23;20142;-74
2023/05/02 02:48:37;;;;;;;22.40;11.80;;;10.00;96.70;;;;;;5026233;28;20022;-73
2023/05/02 02:51:11;;;;;;;24.52;11.27;;;9.90;96.50;;;;;;5023922;28;20055;-73
2023/05/02 02:54:12;;;;;;;16.83;9.73;;;9.90;96.60;;;;;;5020174;28;20090;-73
2023/05/02 02:56:44;;;;;;;18.63;9.75;;;9.80;96.60;;;;;;5023618;28;20363;-74
2023/05/02 02:59:30;;;;;;;15.02;8.45;;;9.90;96.60;;;;;;5023154;28;20059;-73
2023/05/02 03:02:04;;;;;;;12.43;6.80;;;9.90;96.60;;;;;;5022393;28;20081;-73
2023/05/02 03:04:32;;;;;;;10.48;4.95;;;9.80;96.50;;;;;;5019689;28;20508;-74
2023/05/02 03:06:58;;;;;;;8.95;3.60;;;9.60;96.10;;;;;;5020806;28;20116;-73
2023/05/02 03:09:26;;;;;;;7.10;3.38;;;9.30;96.10;;;;;;5111743;23;20336;-75
2023/05/02 03:11:51;;;;;;;6.07;2.80;;;9.20;96.50;;;;;;4999906;28;20398;-74
2023/05/02 03:14:17;;;;;;;5.68;3.13;;;9.00;96.60;;;;;;5003477;28;20041;-74
2023/05/02 03:16:42;;;;;;;7.15;3.25;;;8.70;96.70;;;;;;4999589;28;20323;-74
2023/05/02 03:19:08;;;;;;;8.90;3.05;;;8.60;97.00;;;;;;5006167;28;20025;-73
2023/05/02 03:21:34;;;;;;;5.53;2.58;;;8.50;97.30;;;;;;5008653;28;20108;-74
2023/05/02 03:24:01;;;;;;;7.82;3.05;;;8.50;97.20;;;;;;5001782;28;20022;-75
2023/05/02 03:26:27;;;;;;;7.30;2.42;;;8.30;97.20;;;;;;4989410;28;20026;-74
2023/05/02 03:28:53;;;;;;;8.50;2.55;;;8.30;96.60;;;;;;4995604;28;20044;-74
2023/05/02 03:31:18;;;;;;;8.25;2.63;;;8.10;95.90;;;;;;5002985;28;20165;-74
2023/05/02 03:33:44;;;;;;;9.80;2.75;;;8.10;95.90;;;;;;4998692;28;20113;-74
2023/05/02 03:36:10;;;;;;;10.82;2.60;;;7.90;95.60;;;;;;5000715;28;20038;-74
2023/05/02 03:38:35;;;;;;;10.85;2.58;;;8.00;95.50;;;;;;4998835;28;20051;-73
2023/05/02 03:41:02;;;;;;;10.35;3.17;;;7.90;95.50;;;;;;5000828;28;20378;-74
2023/05/02 03:43:27;;;;;;;13.10;3.22;;;7.90;95.40;;;;;;5002737;28;20033;-73
2023/05/02 03:45:53;;;;;;;10.70;3.00;;;7.80;95.50;;;;;;5003032;28;20037;-72
2023/05/02 03:48:18;;;;;;;12.57;3.40;;;7.60;95.60;;;;;;4998912;28;20360;-73
2023/05/02 03:50:44;;;;;;;12.70;3.58;;;7.50;95.90;;;;;;5006309;28;20048;-73
2023/05/02 03:53:09;;;;;;;15.05;3.90;;;7.60;96.30;;;;;;4998947;28;20040;-72
2023/05/02 03:55:39;;;;;;;15.70;3.97;;;7.60;96.30;;;;;;5000632;28;20575;-72
2023/05/02 03:58:05;;;;;;;16.20;3.95;;;7.60;96.40;;;;;;4995667;28;20605;-73
2023/05/02 04:00:31;;;;;;;18.75;4.80;;;7.60;96.10;;;;;;5000934;28;20378;-73
2023/05/02 04:02:56;;;;;;;20.13;5.47;;;7.60;95.60;;;;;;5002924;28;20038;-73
2023/05/02 04:05:22;;;;;;;17.55;4.57;;;7.50;95.30;;;;;;4998056;28;20482;-73
2023/05/02 04:07:47;;;;;;;23.77;5.22;;;7.50;95.10;;;;;;5005506;28;20104;-73
2023/05/02 04:10:15;;;;;;;20.27;5.15;;;7.50;94.70;;;;;;5003114;28;20041;-73
2023/05/02 04:12:42;;;;;;;19.08;5.20;;;7.50;94.60;;;;;;5001534;28;20034;-74
2023/05/02 04:15:08;;;;;;;24.85;5.30;;;7.50;94.50;;;;;;5006075;28;20036;-73
2023/05/02 04:17:34;;;;;;;27.40;5.57;;;7.50;94.50;;;;;;5008558;28;20434;-73
2023/05/02 04:19:59;;;;;;;22.83;5.50;;;7.50;94.30;;;;;;5007933;28;20045;-73
2023/05/02 04:22:24;;;;;;;20.98;4.78;;;7.50;93.70;;;;;;5006554;28;20431;-73
2023/05/02 04:24:50;;;;;;;17.42;4.90;;;7.40;93.40;;;;;;4998113;28;20084;-74
2023/05/02 04:27:15;;;;;;;24.92;5.25;;;7.40;93.00;;;;;;4996051;28;20081;-72
2023/05/02 04:29:41;;;;;;;25.65;4.85;;;7.40;93.20;;;;;;4999141;28;20537;-68
2023/05/02 04:32:06;;;;;;;23.75;5.30;;;7.40;93.10;;;;;;5005869;28;20120;-69
2023/05/02 04:34:32;;;;;;;21.50;5.15;;;7.30;92.00;;;;;;5005670;28;20110;-68
2023/05/02 04:36:57;;;;;;;20.67;4.85;;;7.30;92.00;;;;;;5001919;28;20026;-68
2023/05/02 04:39:23;;;;;;;22.67;4.32;;;7.30;91.40;;;;;;4999508;28;20339;-68
2023/05/02 04:41:49;;;;;;;18.48;4.63;;;7.30;91.70;;;;;;5007388;28;20030;-67
2023/05/02 04:44:14;;;;;;;16.80;4.80;;;7.40;91.60;;;;;;5000143;28;20070;-69
2023/05/02 04:46:40;;;;;;;13.35;3.47;;;7.40;90.80;;;;;;5011951;28;20037;-68
2023/05/02 04:49:05;;;;;;;15.15;4.20;;;7.40;89.70;;;;;;5008941;28;20449;-68
2023/05/02 04:51:31;;;;;;;20.67;4.97;;;7.40;90.10;;;;;;5013708;28;20076;-68
2023/05/02 04:53:57;;;;;;;12.25;4.05;;;7.40;90.40;;;;;;5007252;28;20030;-67
2023/05/02 04:56:22;;;;;;;19.05;3.85;;;7.40;89.20;;;;;;5004875;28;20311;-68
2023/05/02 04:58:47;;;;;;;15.90;4.03;;;7.40;89.00;;;;;;4999994;28;20030;-67
2023/05/02 05:01:13;;;;;;;14.00;3.85;;;7.40;89.10;;;;;;5002163;28;20025;-68
2023/05/02 05:03:38;;;;;;;11.95;3.65;;;7.50;89.70;;;;;;5003195;28;20136;-70
2023/05/02 05:06:04;;;;;;;22.80;4.15;;;7.60;89.30;;;;;;5003056;28;20110;-68
2023/05/02 05:08:30;;;;;;;19.05;4.53;;;7.60;89.20;;;;;;5013078;28;20140;-68
2023/05/02 05:10:56;;;;;;;16.35;4.15;;;7.50;88.20;;;;;;5001691;28;20056;-68
2023/05/02 05:13:21;;;;;;;13.52;3.60;;;7.50;87.40;;;;;;5009115;28;20129;-68
2023/05/02 05:15:47;;;;;;;17.58;4.25;;;7.50;87.10;;;;;;4995769;28;20352;-68
2023/05/02 05:18:12;;;;;;;16.73;4.10;;;7.50;86.90;;;;;;5005900;28;20483;-68
2023/05/02 05:20:38;;;;;;;19.60;3.95;;;7.50;86.70;;;;;;5008695;28;20029;-68
2023/05/02 05:23:03;;;;;;;14.77;3.95;;;7.50;86.30;;;;;;5003411;28;20443;-68
2023/05/02 05:25:29;;;;;;;18.08;3.75;;;7.50;86.40;;;;;;5007373;28;20440;-68
2023/05/02 05:27:55;;;;;;;15.65;4.15;;;7.50;86.00;;;;;;5001290;28;20029;-70
2023/05/02 05:30:21;;;;;;;13.20;3.42;;;7.50;85.80;;;;;;5003273;28;20227;-70
2023/05/02 05:32:46;;;;;;;21.25;4.25;;;7.40;85.40;;;;;;5002150;28;20030;-69
2023/05/02 05:35:12;;;;;;;22.35;4.25;;;7.40;85.00;;;;;;5001027;28;20057;-68
2023/05/02 05:37:38;;;;;;;15.23;3.80;;;7.50;85.50;;;;;;5001198;28;20097;-68
2023/05/02 05:40:08;;;;;;;15.05;3.53;;;7.40;84.70;;;;;;4998768;28;20057;-70
2023/05/02 05:42:34;;;;;;;18.10;4.07;;;7.50;84.40;;;;;;5003274;28;20099;-70
2023/05/02 05:44:59;;;;;;;16.00;3.08;;;7.50;84.30;;;;;;5005410;28;20041;-69
2023/05/02 05:47:25;;;;;;;15.40;3.60;;;7.50;84.30;;;;;;5002442;28;20124;-68
2023/05/02 05:49:54;;;;;;;20.38;3.50;;;7.40;83.60;;;;;;5006368;28;20034;-69
2023/05/02 05:52:20;;;;;;;14.55;3.85;;;7.50;84.50;;;;;;4999947;28;20030;-70
2023/05/02 05:54:45;;;;;;;16.77;2.80;;;7.40;84.50;;;;;;5005939;28;20128;-69
2023/05/02 05:57:11;;;;;;;12.90;3.58;;;7.30;84.20;;;;;;5003786;28;20029;-69
2023/05/02 05:59:36;;;;;;;18.20;3.75;;;7.30;84.50;;;;;;4998353;28;20140;-70
2023/05/02 06:02:02;;;;;;;14.43;3.58;;;7.40;84.90;;;;;;5007250;28;20356;-68
2023/05/02 06:04:28;;;;;;;14.65;3.72;;;7.40;85.10;;;;;;5001158;28;20050;-70
2023/05/02 06:06:54;;;;;;;14.23;3.28;;;7.40;85.20;;;;;;4997229;28;20059;-68
2023/05/02 06:09:19;;;;;;;21.15;3.65;;;7.30;84.30;;;;;;5003291;28;20415;-69
2023/05/02 06:11:45;;;;;;;15.35;3.08;;;7.30;84.30;;;;;;5000373;28;20460;-68
2023/05/02 06:14:10;;;;;;;18.25;3.80;;;7.20;84.20;;;;;;5005142;28;20040;-68
2023/05/02 06:16:36;;;;;;;13.00;3.13;;;7.20;84.70;;;;;;5003957;28;20372;-70
2023/05/02 06:19:01;;;;;;;15.90;3.28;;;7.20;84.10;;;;;;5003236;28;20029;-69
2023/05/02 06:21:27;;;;;;;14.93;3.28;;;7.20;84.20;;;;;;5002969;28;20040;-68
2023/05/02 06:23:52;;;;;;;11.55;3.28;;;7.20;83.40;;;;;;5001988;28;20037;-68
2023/05/02 06:26:18;;;;;;;16.02;3.42;;;7.20;84.00;;;;;;4996301;28;20147;-68
2023/05/02 06:28:43;;;;;;;13.05;3.17;;;7.20;84.20;;;;;;5005681;28;20240;-69
2023/05/02 06:31:09;;;;;;;17.15;2.88;;;7.30;84.00;;;;;;4997262;28;20040;-70
2023/05/02 06:33:35;;;;;;;21.35;3.70;;;7.10;83.40;;;;;;4995632;28;20380;-68
2023/05/02 06:36:01;;;;;;;18.38;3.60;;;7.20;82.80;;;;;;4997196;28;20466;-66
2023/05/02 06:38:26;;;;;;;13.23;3.90;;;7.30;82.90;;;;;;4994108;28;20030;-66
2023/05/02 06:40:52;;;;;;;12.25;3.00;;;7.40;83.20;;;;;;5000925;28;20014;-67
2023/05/02 06:43:18;;;;;;;18.85;3.53;;;7.50;82.90;;;;;;4999540;28;20451;-66
2023/05/02 06:45:43;;;;;;;18.00;3.25;;;7.40;82.20;;;;;;5000533;28;20040;-66
2023/05/02 06:48:09;;;;;;;17.52;3.10;;;7.30;81.70;;;;;;4999810;28;20320;-67
2023/05/02 06:50:35;;;;;;;15.52;3.42;;;7.50;81.60;;;;;;4995730;28;20026;-67
2023/05/02 06:53:00;;;;;;;12.18;3.22;;;7.60;81.50;;;;;;5015115;28;20053;-67
2023/05/02 06:55:26;;;;;;;13.73;3.33;;;7.50;81.60;;;;;;4999424;28;20082;-67
2023/05/02 06:57:53;;;;;;;10.82;3.17;;;7.40;81.50;;;;;;5002987;28;20026;-67
2023/05/02 07:00:19;;;;;;;9.00;2.58;;;7.50;81.50;;;;;;4999731;28;20030;-69
2023/05/02 07:02:46;;;;;;;10.88;2.80;;;7.50;80.70;;;;;;4990021;28;20030;-67
2023/05/02 07:05:14;;;;;;;13.57;3.10;;;7.40;80.20;;;;;;4985624;28;20634;-67
2023/05/02 07:07:41;;;;;;;8.82;2.70;;;7.40;80.70;;;;;;4988399;28;20038;-68
2023/05/02 07:10:06;;;;;;;9.82;2.88;;;7.40;79.00;;;;;;4984330;28;20136;-69
2023/05/02 07:12:32;;;;;;;12.88;2.92;;;7.40;78.70;;;;;;4984928;28;20046;-67
2023/05/02 07:14:57;;;;;;;10.30;2.95;;;7.40;78.20;;;;;;4986532;28;20112;-66
2023/05/02 07:17:24;;;;;;;10.60;2.83;;;7.50;78.10;;;;;;4991224;28;20033;-69
2023/05/02 07:19:50;;;;;;;7.78;2.60;;;7.50;77.30;;;;;;5000966;28;20438;-66
2023/05/02 07:22:15;;;;;;;10.38;2.53;;;7.60;77.00;;;;;;5003902;28;20042;-67
2023/05/02 07:24:41;;;;;;;12.95;2.50;;;7.60;76.00;;;;;;4995692;28;20121;-68
2023/05/02 07:27:11;;;;;;;15.18;2.45;;;7.50;76.10;;;;;;4998669;28;20459;-68
2023/05/02 07:29:37;;;;;;;12.25;3.05;;;7.60;76.20;;;;;;5003565;28;20044;-69
2023/05/02 07:32:03;;;;;;;10.93;2.33;;;7.70;75.80;;;;;;4995468;28;20075;-67
2023/05/02 07:34:29;;;;;;;11.35;2.15;;;7.70;75.00;;;;;;4994124;28;20037;-69
2023/05/02 07:36:54;;;;;;;11.43;2.05;;;7.70;74.70;;;;;;5001362;28;20037;-66
2023/05/02 07:39:20;;;;;;;9.75;2.33;;;7.80;74.80;;;;;;5000419;28;20098;-67
2023/05/02 07:41:46;;;;;;;9.00;2.70;;;7.90;75.20;;;;;;4995604;28;20339;-67
2023/05/02 07:44:11;;;;;;;6.68;2.25;;;8.00;74.10;;;;;;4993051;28;20110;-66
2023/05/02 07:46:37;;;;;;;14.82;2.58;;;7.90;73.30;;;;;;5003912;28;20149;-70
2023/05/02 07:49:02;;;;;;;6.45;2.10;;;8.00;73.20;;;;;;4999912;28;20037;-66
2023/05/02 07:51:28;;;;;;;15.07;2.80;;;8.00;73.80;;;;;;4999892;28;20462;-66
2023/05/02 07:53:57;;;;;;;7.88;2.10;;;8.00;73.80;;;;;;5001150;28;20038;-66
2023/05/02 07:56:25;;;;;;;10.27;2.33;;;8.10;73.80;;;;;;4998509;28;20025;-66
2023/05/02 07:58:51;;;;;;;8.13;2.15;;;8.30;73.40;;;;;;5008902;28;20099;-67
2023/05/02 08:01:17;;;;;;;8.07;2.22;;;8.30;72.20;;;;;;4999055;28;20113;-66
2023/05/02 08:03:43;;;;;;;10.40;2.25;;;8.50;73.50;;;;;;5001453;28;20092;-66
2023/05/02 08:06:09;;;;;;;9.70;1.83;;;8.50;71.70;;;;;;5005161;28;20078;-69
2023/05/02 08:08:35;;;;;;;7.32;2.08;;;8.60;71.40;;;;;;5004185;28;20081;-66
2023/05/02 08:11:00;;;;;;;5.10;1.67;;;8.40;69.00;;;;;;5002886;28;20758;-68
2023/05/02 08:13:26;;;;;;;6.97;1.95;;;8.70;69.90;;;;;;4996708;28;20034;-66
2023/05/02 08:15:56;;;;;;;11.02;1.88;;;8.80;69.10;;;;;;4999562;28;20117;-66
2023/05/02 08:18:25;;;;;;;4.90;1.73;;;8.70;68.50;;;;;;5001133;28;20286;-67
2023/05/02 08:20:50;;;;;;;7.95;1.90;;;8.60;67.60;;;;;;5004099;28;20383;-67
2023/05/02 08:23:16;;;;;;;7.50;2.00;;;8.80;69.40;;;;;;5011005;28;20451;-66
2023/05/02 08:25:41;;;;;;;9.63;2.03;;;9.00;68.80;;;;;;5017192;28;20037;-66
2023/05/02 08:28:07;;;;;;;7.70;1.73;;;9.10;69.30;;;;;;5010484;28;20028;-66
2023/05/02 08:30:32;;;;;;;9.13;1.88;;;9.20;68.30;;;;;;5007462;28;20026;-67
2023/05/02 08:32:58;;;;;;;5.55;1.60;;;9.20;67.20;;;;;;5003494;28;20093;-67
2023/05/02 08:35:23;;;;;;;7.25;1.83;;;9.10;66.90;;;;;;5007353;28;20037;-68
2023/05/02 08:37:49;;;;;;;6.13;1.77;;;9.10;67.60;;;;;;5005844;28;20045;-67
2023/05/02 08:40:16;;;;;;;11.57;1.95;;;9.30;69.00;;;;;;5007756;28;20408;-67
2023/05/02 08:42:43;;;;;;;8.32;1.90;;;9.50;68.40;;;;;;5010788;28;20018;-68
2023/05/02 08:45:12;;;;;;;6.45;1.90;;;9.60;66.40;;;;;;5000132;28;20026;-67
2023/05/02 08:47:39;;;;;;;9.68;1.92;;;9.70;68.10;;;;;;5002852;28;20038;-68
2023/05/02 08:50:05;;;;;;;10.05;2.03;;;9.80;67.20;;;;;;5010294;28;20018;-68
2023/05/02 08:52:32;;;;;;;9.70;1.83;;;9.50;66.40;;;;;;5002451;28;20033;-68
2023/05/02 08:55:00;;;;;;;4.95;1.45;;;9.20;66.30;;;;;;5007409;28;20106;-68
2023/05/02 08:57:28;;;;;;;7.07;1.65;;;9.30;68.00;;;;;;5007189;28;20352;-68
2023/05/02 08:59:54;;;;;;;5.80;1.42;;;9.00;67.90;;;;;;5006618;28;20415;-67
2023/05/02 09:02:54;;;;;;;6.15;1.65;;;8.80;67.60;;;;;;5001616;28;20052;-67
2023/05/02 09:05:22;;;;;;;6.65;1.85;;;8.90;68.40;;;;;;5003484;28;20030;-67
2023/05/02 09:07:51;;;;;;;7.05;1.50;;;8.80;70.20;;;;;;5005840;28;20427;-66
2023/05/02 09:10:17;;;;;;;7.10;1.83;;;8.90;70.50;;;;;;4991678;28;20068;-69
2023/05/02 09:12:42;;;;;;;8.55;1.65;;;9.10;69.30;;;;;;5005885;28;20070;-67
2023/05/02 09:15:13;;;;;;;6.03;1.70;;;9.70;69.00;;;;;;4998870;28;20533;-67
2023/05/02 09:17:43;;;;;;;7.93;1.75;;;10.20;68.60;;;;;;4999339;28;20315;-69
2023/05/02 09:20:14;;;;;;;9.43;1.80;;;10.30;65.20;;;;;;5001271;28;20029;-68
2023/05/02 09:22:48;;;;;;;6.15;1.40;;;10.60;66.10;;;;;;4997032;28;20026;-68
2023/05/02 09:25:14;;;;;;;4.75;1.52;;;10.00;65.20;;;;;;5006675;28;20480;-70
2023/05/02 09:27:51;;;;;;;4.22;1.23;;;9.70;66.60;;;;;;4999534;28;20104;-68
2023/05/02 09:30:24;;;;;;;5.20;1.38;;;9.70;67.40;;;;;;5003838;28;20026;-70
2023/05/02 09:32:52;;;;;;;4.88;1.40;;;9.60;68.00;;;;;;5001834;28;20030;-69
2023/05/02 09:35:22;;;;;;;5.47;1.42;;;9.30;68.10;;;;;;4997061;28;20154;-71
2023/05/02 09:37:58;;;;;;;6.63;1.40;;;9.40;68.40;;;;;;4995615;28;20060;-70
2023/05/02 09:40:24;;;;;;;6.40;1.50;;;9.60;67.70;;;;;;4995403;28;20112;-70
2023/05/02 09:42:50;;;;;;;3.75;1.10;;;9.70;68.40;;;;;;4995756;28;20478;-70
2023/05/02 09:45:24;;;;;;;5.57;1.48;;;10.00;67.30;;;;;;5005340;28;20052;-68
2023/05/02 09:47:50;;;;;;;3.33;1.20;;;9.90;67.20;;;;;;4998274;28;20031;-70
2023/05/02 09:50:35;;;;;;;3.97;1.38;;;9.90;67.30;;;;;;4997737;28;20017;-69
2023/05/02 09:53:05;;;;;;;5.13;1.40;;;9.80;67.60;;;;;;5001168;28;20030;-69
2023/05/02 09:55:31;;;;;;;4.25;1.23;;;9.40;68.00;;;;;;4991668;28;20045;-68
2023/05/02 09:57:56;;;;;;;4.10;1.40;;;9.70;67.80;;;;;;5001937;28;20022;-69
2023/05/02 10:00:23;;;;;;;7.40;1.40;;;10.20;68.20;;;;;;5003410;28;20048;-68
2023/05/02 10:02:50;;;;;;;6.80;1.20;;;10.00;67.60;;;;;;5001793;28;20157;-68
2023/05/02 10:05:16;;;;;;;5.13;1.58;;;9.80;66.10;;;;;;5002736;28;20025;-69
2023/05/02 10:07:44;;;;;;;7.18;1.70;;;10.00;67.40;;;;;;5000315;28;20022;-68
2023/05/02 10:10:16;;;;;;;3.33;1.23;;;10.00;67.30;;;;;;5009918;28;20104;-70
2023/05/02 10:12:42;;;;;;;3.70;1.25;;;9.70;67.00;;;;;;4996747;28;20026;-68
2023/05/02 10:15:13;;;;;;;3.28;1.10;;;9.40;67.60;;;;;;4999835;28;20104;-68
2023/05/02 10:17:46;;;;;;;4.72;0.90;;;9.50;66.20;;;;;;4996243;28;20036;-70
2023/05/02 10:20:17;;;;;;;5.03;1.27;;;9.50;64.90;;;;;;5001468;28;20120;-69
2023/05/02 10:22:44;;;;;;;4.53;1.27;;;9.80;63.30;;;;;;5006938;28;20045;-68
2023/05/02 10:25:12;;;;;;;6.00;1.27;;;9.70;62.90;;;;;;5003829;28;20440;-68
2023/05/02 10:27:38;;;;;;;4.10;1.17;;;10.70;61.90;;;;;;5000910;28;20025;-71
2023/05/02 10:30:05;;;;;;;4.28;0.90;;;12.10;59.50;;;;;;5005651;28;20471;-68
2023/05/02 10:32:33;;;;;;;3.78;0.88;;;12.50;56.80;;;;;;5001248;28;20037;-71
2023/05/02 10:35:03;;;;;;;2.28;0.93;;;12.20;55.20;;;;;;4994482;28;20030;-69
2023/05/02 10:37:32;;;;;;;2.45;0.93;;;11.70;56.90;;;;;;5006013;28;20063;-69
2023/05/02 10:39:58;;;;;;;4.47;1.17;;;11.40;57.90;;;;;;4998039;28;20105;-70
2023/05/02 10:42:25;;;;;;;4.57;0.90;;;11.00;59.70;;;;;;4997925;28;20362;-68
2023/05/02 10:44:50;;;;;;;4.13;1.15;;;11.00;58.30;;;;;;5004205;28;20037;-68
2023/05/02 10:47:24;;;;;;;3.08;1.17;;;11.50;58.90;;;;;;5012924;28;20030;-69
2023/05/02 10:49:51;;;;;;;4.57;1.10;;;11.90;57.20;;;;;;5001760;28;20033;-69
2023/05/02 10:52:30;;;;;;;3.55;1.20;;;12.00;55.70;;;;;;5003230;28;20485;-69
2023/05/02 10:55:16;;;;;;;2.03;0.90;;;12.80;56.40;;;;;;5008203;28;20053;-68
2023/05/02 10:57:59;;;;;;;4.68;1.17;;;13.10;53.60;;;;;;5005965;28;20042;-68
2023/05/02 11:00:28;;;;;;;2.95;0.95;;;13.50;50.20;;;;;;4996017;28;20115;-69
2023/05/02 11:02:53;;;;;;;4.10;1.02;;;13.50;50.70;;;;;;4997238;28;20521;-67
2023/05/02 11:05:20;;;;;;;2.78;0.85;;;13.20;51.00;;;;;;4999376;28;20144;-69
2023/05/02 11:07:45;;;;;;;2.67;0.70;;;12.40;52.40;;;;;;5002151;28;20030;-68
2023/05/02 11:10:17;;;;;;;2.55;0.77;;;11.70;54.70;;;;;;4997966;28;20038;-67
2023/05/02 11:12:52;;;;;;;4.63;1.13;;;11.80;55.30;;;;;;4997437;28;20378;-68
2023/05/02 11:15:27;;;;;;;3.88;0.70;;;11.70;56.50;;;;;;5003710;28;20025;-70
2023/05/02 11:18:00;;;;;;;2.45;0.90;;;11.50;57.30;;;;;;5005486;28;20041;-68
2023/05/02 11:20:25;;;;;;;5.05;1.20;;;11.30;57.70;;;;;;5000546;28;20414;-69
2023/05/02 11:22:52;;;;;;;3.97;1.15;;;11.30;59.10;;;;;;5007406;28;20030;-67
2023/05/02 11:25:32;;;;;;;4.10;0.80;;;11.20;60.10;;;;;;5008706;28;20029;-67
2023/05/02 11:27:57;;;;;;;5.25;1.15;;;11.20;61.50;;;;;;5007812;28;20087;-68
2023/05/02 11:30:43;;;;;;;5.32;1.10;;;11.10;61.50;;;;;;5016168;28;20491;-67
2023/05/02 11:33:09;;;;;;;4.47;1.48;;;11.40;62.10;;;;;;4996769;28;20037;-69
2023/05/02 11:35:35;;;;;;;3.22;1.13;;;11.30;63.90;;;;;;4998598;28;20029;-67
2023/05/02 11:38:07;;;;;;;4.57;1.20;;;11.30;62.70;;;;;;5003927;28;20060;-67
2023/05/02 11:40:32;;;;;;;3.20;1.20;;;11.40;62.80;;;;;;4999176;28;20029;-69
2023/05/02 11:42:59;;;;;;;3.97;1.13;;;10.80;64.30;;;;;;5006792;28;20032;-68
2023/05/02 11:45:35;;;;;;;5.68;1.33;;;11.00;64.70;;;;;;5004305;28;20022;-70
2023/05/02 11:48:05;;;;;;;7.93;1.20;;;10.80;64.90;;;;;;5003988;28;20057;-67
2023/05/02 11:50:32;;;;;;;3.40;1.02;;;10.90;63.10;;;;;;5003763;28;20026;-69
2023/05/02 11:52:57;;;;;;;3.47;1.13;;;11.10;62.90;;;;;;5008547;28;20045;-68
2023/05/02 11:55:23;;;;;;;5.63;1.30;;;10.80;63.90;;;;;;5008342;28;20056;-67
2023/05/02 11:57:48;;;;;;;4.40;1.00;;;10.70;64.60;;;;;;4996246;28;20124;-68
2023/05/02 12:00:14;;;;;;;3.00;0.85;;;10.30;64.70;;;;;;4998860;28;20608;-66
2023/05/02 12:02:42;;;;;;;4.22;1.30;;;10.30;64.40;;;;;;5005984;28;20546;-67
2023/05/02 12:05:10;;;;;;;4.20;1.30;;;10.40;65.00;;;;;;5009058;28;20061;-68
2023/05/02 12:07:40;;;;;;;3.63;1.10;;;10.30;65.20;;;;;;5001553;28;20028;-70
2023/05/02 12:10:06;;;;;;;6.05;1.15;;;10.20;65.60;;;;;;5000559;28;20042;-68
2023/05/02 12:12:32;;;;;;;5.20;1.00;;;10.50;66.00;;;;;;4999023;28;20025;-68
2023/05/02 12:15:02;;;;;;;3.17;1.00;;;10.60;65.00;;;;;;5013591;28;20342;-67
2023/05/02 12:17:28;;;;;;;3.42;1.02;;;10.80;64.50;;;;;;5004631;28;20045;-67
2023/05/02 12:19:53;;;;;;;7.28;1.10;;;10.60;61.30;;;;;;5009726;28;20033;-66
2023/05/02 12:22:19;;;;;;;5.22;0.90;;;11.10;61.60;;;;;;5005458;28;20438;-67
2023/05/02 12:24:45;;;;;;;2.90;0.88;;;11.20;60.60;;;;;;5001987;28;20403;-68
2023/05/02 12:27:12;;;;;;;2.28;0.80;;;11.00;59.70;;;;;;4998918;28;20072;-67
2023/05/02 12:29:43;;;;;;;4.82;0.93;;;11.10;58.00;;;;;;4997344;28;20038;-68
2023/05/02 12:32:09;;;;;;;0.88;0.57;;;11.30;57.60;;;;;;5003866;28;20327;-69
2023/05/02 12:34:36;;;;;;;3.50;0.90;;;11.60;56.10;;;;;;4997936;28;20048;-68
2023/05/02 12:37:02;;;;;;;5.88;0.77;;;12.20;56.40;;;;;;5002765;28;20061;-68
2023/05/02 12:39:41;;;;;;;2.53;0.82;;;12.60;56.20;;;;;;5002759;28;20511;-67
2023/05/02 12:42:14;;;;;;;5.40;0.70;;;13.20;54.80;;;;;;5008091;28;20026;-67
2023/05/02 12:44:42;;;;;;;7.72;1.10;;;12.70;53.90;;;;;;5012837;28;20224;-67
2023/05/02 12:47:13;;;;;;;4.47;0.93;;;12.10;57.00;;;;;;4997605;28;20065;-68
2023/05/02 12:49:52;;;;;;;3.45;1.00;;;11.70;57.00;;;;;;5008319;28;20030;-68